Terminal Aerodrome Forecast
Issued by NWS

Home | Current Version | Previous Version | Text Only | Print | Product List | Glossary On
Versions: 1 2 3 4 5 6 7 8 9 10 11 12 13 14 15
000
FTUS45 KTFX 010158 AAA
TAFLWT
TAF AMD
KLWT 010158Z 0102/0124 29011KT P6SM VCSH SCT050 BKN090
      TEMPO 0102/0104 -SHRA BKN040
     FM010400 27011KT P6SM SCT060 BKN100
     FM010700 29013G21KT P6SM VCSH SCT035 OVC050 PROB30 0111/0116
      -SHRA BKN025
     FM011800 31015G23KT P6SM SCT035 BKN060=

USA.gov is the U.S. government's official web portal to all federal, state and local government web resources and services.